createdAt,value
2023-08-27T00:02:25.702Z,12.90
2023-08-27T00:05:09.527Z,9.90
2023-08-27T00:07:53.861Z,7.60
2023-08-27T00:10:37.427Z,13.60
2023-08-27T00:13:20.450Z,11.50
2023-08-27T00:16:07.467Z,12.90
2023-08-27T00:18:50.854Z,13.30
2023-08-27T00:21:33.819Z,9.30
2023-08-27T00:24:17.426Z,11.90
2023-08-27T00:27:01.444Z,12.30
2023-08-27T00:29:44.751Z,9.50
2023-08-27T00:32:29.634Z,10.70
2023-08-27T00:35:14.529Z,12.50
2023-08-27T00:37:58.350Z,9.30
2023-08-27T00:40:42.779Z,10.60
2023-08-27T00:43:26.285Z,8.10
2023-08-27T00:46:12.257Z,12.90
2023-08-27T00:48:56.911Z,14.00
2023-08-27T00:51:40.142Z,8.80
2023-08-27T00:54:25.429Z,8.10
2023-08-27T00:57:10.745Z,11.80
2023-08-27T00:59:56.613Z,9.80
2023-08-27T01:02:41.588Z,13.80
2023-08-27T01:06:18.520Z,13.60
2023-08-27T01:10:28.227Z,11.70
2023-08-27T01:14:37.991Z,15.90
2023-08-27T01:18:41.814Z,11.30
2023-08-27T01:22:45.752Z,18.30
2023-08-27T01:26:49.589Z,10.20
2023-08-27T01:30:56.520Z,9.10
2023-08-27T01:35:00.474Z,8.40
2023-08-27T01:39:05.512Z,9.30
2023-08-27T01:43:04.223Z,8.90
2023-08-27T01:47:08.288Z,10.50
2023-08-27T01:51:13.014Z,10.60
2023-08-27T01:55:16.985Z,12.20
2023-08-27T01:59:22.893Z,12.20
2023-08-27T02:03:26.813Z,10.50
2023-08-27T02:07:30.773Z,8.40
2023-08-27T02:11:34.661Z,9.40
2023-08-27T02:15:38.591Z,9.80
2023-08-27T02:19:42.621Z,12.00
2023-08-27T02:23:46.578Z,11.40
2023-08-27T02:27:43.446Z,12.70
2023-08-27T02:31:53.464Z,11.10
2023-08-27T02:35:58.221Z,10.40
2023-08-27T02:40:02.053Z,14.90
2023-08-27T02:44:05.894Z,11.50
2023-08-27T02:48:02.801Z,9.10
2023-08-27T02:52:06.719Z,11.30
2023-08-27T02:56:10.767Z,10.30
2023-08-27T03:00:07.306Z,9.30
2023-08-27T03:04:11.142Z,12.00
2023-08-27T03:08:08.048Z,10.60
2023-08-27T03:12:11.884Z,10.90
2023-08-27T03:16:08.281Z,8.40
2023-08-27T03:23:56.854Z,12.90
2023-08-27T03:27:50.904Z,14.50
2023-08-27T03:31:47.998Z,11.50
2023-08-27T03:35:52.017Z,14.80
2023-08-27T03:39:55.941Z,10.50
2023-08-27T03:43:50.507Z,9.10
2023-08-27T03:47:54.447Z,11.90
2023-08-27T03:51:58.383Z,12.20
2023-08-27T03:56:02.297Z,14.40
2023-08-27T04:00:06.216Z,10.80
2023-08-27T04:04:11.254Z,10.00
2023-08-27T04:08:15.176Z,15.20
2023-08-27T04:12:19.078Z,12.50
2023-08-27T04:16:23.079Z,8.30
2023-08-27T04:20:20.454Z,8.50
2023-08-27T04:24:24.304Z,7.90
2023-08-27T04:28:28.159Z,10.10
2023-08-27T04:32:33.176Z,10.80
2023-08-27T04:36:37.025Z,10.10
2023-08-27T04:40:41.001Z,11.30
2023-08-27T04:44:44.993Z,9.40
2023-08-27T04:48:48.852Z,11.50
2023-08-27T04:52:42.901Z,11.00
2023-08-27T04:56:46.813Z,9.50
2023-08-27T05:00:50.811Z,12.30
2023-08-27T05:04:54.745Z,12.80
2023-08-27T05:08:58.584Z,11.60
2023-08-27T05:13:03.285Z,10.30
2023-08-27T05:17:08.476Z,11.40
2023-08-27T05:21:12.734Z,8.40
2023-08-27T05:25:16.663Z,9.70
2023-08-27T05:33:42.731Z,8.40
2023-08-27T05:37:48.550Z,13.50
2023-08-27T05:41:42.428Z,8.90
2023-08-27T05:45:46.469Z,10.50
2023-08-27T05:49:42.721Z,10.70
2023-08-27T05:53:50.967Z,14.40
2023-08-27T05:57:54.837Z,9.90
2023-08-27T06:01:58.777Z,7.70
2023-08-27T06:06:02.575Z,8.50
2023-08-27T06:10:06.533Z,7.60
2023-08-27T06:14:10.451Z,7.50
2023-08-27T06:18:03.298Z,8.90
2023-08-27T06:22:00.195Z,7.10
2023-08-27T06:26:05.433Z,8.20
2023-08-27T06:30:09.354Z,8.70
2023-08-27T06:34:07.681Z,11.90
2023-08-27T06:38:13.499Z,5.90
2023-08-27T06:42:17.444Z,7.20
2023-08-27T06:46:22.194Z,7.70
2023-08-27T06:50:21.562Z,5.80
2023-08-27T06:54:26.374Z,11.30
2023-08-27T06:58:32.766Z,7.40
2023-08-27T07:02:36.749Z,5.20
2023-08-27T07:06:40.747Z,9.10
2023-08-27T07:10:45.770Z,10.00
2023-08-27T07:14:43.467Z,8.30
2023-08-27T07:18:47.370Z,7.10
2023-08-27T07:22:53.327Z,8.00
2023-08-27T07:26:57.208Z,5.50
2023-08-27T07:31:01.157Z,8.80
2023-08-27T07:35:04.996Z,8.50
2023-08-27T07:39:08.900Z,6.30
2023-08-27T07:42:57.706Z,5.70
2023-08-27T07:46:54.079Z,6.90
2023-08-27T07:50:57.531Z,5.10
2023-08-27T07:55:01.490Z,5.20
2023-08-27T07:59:05.359Z,6.40
2023-08-27T08:03:05.545Z,8.00
2023-08-27T08:07:10.532Z,8.50
2023-08-27T08:11:15.263Z,7.80
2023-08-27T08:15:19.181Z,6.40
2023-08-27T08:19:25.105Z,8.90
2023-08-27T08:23:30.036Z,10.60
2023-08-27T08:27:35.710Z,8.10
2023-08-27T08:31:40.739Z,9.10
2023-08-27T08:35:44.738Z,8.00
2023-08-27T08:39:48.567Z,6.80
2023-08-27T08:43:53.660Z,7.10
2023-08-27T08:47:57.536Z,10.90
2023-08-27T08:52:02.524Z,9.60
2023-08-27T08:56:10.386Z,9.50
2023-08-27T09:00:14.306Z,7.90
2023-08-27T09:04:01.068Z,7.60
2023-08-27T09:08:15.331Z,7.30
2023-08-27T09:12:21.056Z,8.60
2023-08-27T09:16:16.391Z,8.60
2023-08-27T09:20:22.162Z,9.60
2023-08-27T09:26:10.237Z,7.80
2023-08-27T09:29:57.968Z,9.50
2023-08-27T09:33:49.901Z,6.10
2023-08-27T09:37:53.928Z,7.60
2023-08-27T09:41:57.798Z,11.00
2023-08-27T09:45:44.308Z,14.70
2023-08-27T09:49:36.194Z,9.30
2023-08-27T09:53:04.011Z,8.40
2023-08-27T09:56:59.984Z,7.40
2023-08-27T10:00:52.464Z,6.30
2023-08-27T10:04:30.305Z,5.60
2023-08-27T10:08:37.042Z,7.30
2023-08-27T10:12:06.361Z,7.70
2023-08-27T10:15:52.023Z,5.90
2023-08-27T10:19:49.226Z,6.50
2023-08-27T10:23:39.632Z,9.70
2023-08-27T10:27:24.801Z,7.00
2023-08-27T10:31:28.423Z,8.20
2023-08-27T10:35:18.352Z,6.20
2023-08-27T10:39:15.852Z,8.40
2023-08-27T10:43:14.418Z,6.20
2023-08-27T10:47:00.236Z,6.70
2023-08-27T10:51:04.185Z,6.90
2023-08-27T10:55:00.764Z,5.60
2023-08-27T10:58:43.301Z,11.80
2023-08-27T11:02:33.803Z,9.20
2023-08-27T11:06:29.536Z,9.50
2023-08-27T11:10:32.469Z,7.50
2023-08-27T11:14:42.468Z,10.40
2023-08-27T11:18:36.256Z,8.50
2023-08-27T11:21:50.042Z,8.00
2023-08-27T11:25:53.939Z,10.20
2023-08-27T11:29:54.932Z,6.10
2023-08-27T11:33:23.553Z,7.10
2023-08-27T11:37:19.211Z,7.40
2023-08-27T11:40:59.255Z,7.80
2023-08-27T11:44:18.313Z,9.20
2023-08-27T11:48:06.402Z,6.00
2023-08-27T11:52:10.582Z,7.00
2023-08-27T11:56:14.517Z,7.90
2023-08-27T12:00:12.573Z,4.70
2023-08-27T12:03:54.253Z,8.60
2023-08-27T12:08:06.903Z,8.40
2023-08-27T12:11:28.879Z,8.00
2023-08-27T12:15:22.849Z,7.00
2023-08-27T12:19:26.806Z,6.90
2023-08-27T12:23:11.560Z,7.20
2023-08-27T12:26:58.121Z,8.30
2023-08-27T12:31:02.255Z,12.20
2023-08-27T12:34:32.381Z,8.50
2023-08-27T12:38:38.437Z,7.50
2023-08-27T12:42:31.221Z,6.80
2023-08-27T12:46:25.233Z,8.10
2023-08-27T12:50:30.397Z,11.20
2023-08-27T12:54:28.142Z,10.90
2023-08-27T12:58:33.047Z,8.50
2023-08-27T13:02:37.044Z,9.70
2023-08-27T13:06:41.099Z,8.90
2023-08-27T13:10:35.186Z,9.80
2023-08-27T13:14:42.326Z,7.70
2023-08-27T13:18:46.394Z,6.70
2023-08-27T13:22:51.331Z,7.50
2023-08-27T13:26:35.250Z,7.70
2023-08-27T13:30:27.954Z,10.20
2023-08-27T13:34:31.900Z,8.30
2023-08-27T13:38:25.917Z,10.00
2023-08-27T13:42:29.705Z,11.30
2023-08-27T13:46:29.964Z,10.40
2023-08-27T13:50:24.967Z,9.60
2023-08-27T13:54:17.448Z,10.70
2023-08-27T13:58:21.472Z,8.80
2023-08-27T14:02:26.847Z,11.20
2023-08-27T14:06:14.577Z,11.50
2023-08-27T14:10:17.356Z,9.90
2023-08-27T14:14:22.479Z,17.40
2023-08-27T14:18:29.645Z,10.00
2023-08-27T14:22:33.548Z,13.00
2023-08-27T14:26:37.447Z,15.70
2023-08-27T14:30:21.297Z,12.00
2023-08-27T14:34:26.670Z,13.10
2023-08-27T14:38:30.749Z,11.60
2023-08-27T14:42:34.725Z,12.30
2023-08-27T14:46:38.618Z,13.80
2023-08-27T14:50:35.540Z,11.90
2023-08-27T14:54:00.848Z,10.00
2023-08-27T14:57:52.352Z,11.00
2023-08-27T15:01:12.848Z,10.00
2023-08-27T15:05:05.410Z,12.90
2023-08-27T15:08:40.202Z,13.30
2023-08-27T15:12:37.838Z,12.60
2023-08-27T15:15:49.862Z,11.50
2023-08-27T15:19:22.897Z,14.60
2023-08-27T15:22:35.715Z,15.00
2023-08-27T15:26:21.198Z,16.80
2023-08-27T15:29:54.033Z,15.50
2023-08-27T15:33:15.975Z,15.30
2023-08-27T15:36:28.313Z,14.10
2023-08-27T15:39:38.861Z,18.20
2023-08-27T15:43:09.841Z,14.50
2023-08-27T15:47:04.768Z,18.50
2023-08-27T15:50:48.879Z,19.40
2023-08-27T15:54:35.536Z,16.00
2023-08-27T15:58:39.568Z,14.50
2023-08-27T16:02:42.047Z,15.50
2023-08-27T16:06:46.487Z,18.80
2023-08-27T16:10:49.306Z,18.60
2023-08-27T16:14:52.047Z,16.90
2023-08-27T16:18:54.482Z,18.80
2023-08-27T16:22:47.430Z,15.00
2023-08-27T16:26:51.476Z,23.10
2023-08-27T16:30:44.449Z,15.90
2023-08-27T16:34:48.350Z,17.40
2023-08-27T16:38:52.282Z,17.00
2023-08-27T16:42:43.362Z,17.10
2023-08-27T16:46:48.393Z,17.30
2023-08-27T16:50:52.392Z,21.00
2023-08-27T16:54:56.319Z,17.00
2023-08-27T16:59:00.343Z,17.30
2023-08-27T17:03:07.536Z,18.40
2023-08-27T17:07:04.776Z,16.60
2023-08-27T17:11:08.859Z,16.20
2023-08-27T17:15:12.805Z,17.60
2023-08-27T17:19:17.844Z,16.30
2023-08-27T17:23:21.724Z,17.50
2023-08-27T17:27:15.772Z,18.30
2023-08-27T17:31:19.862Z,19.60
2023-08-27T17:35:03.831Z,14.80
2023-08-27T17:38:47.699Z,15.10
2023-08-27T17:42:51.629Z,14.40
2023-08-27T17:46:56.420Z,14.80
2023-08-27T17:50:48.870Z,13.80
2023-08-27T17:54:44.981Z,14.50
2023-08-27T17:58:41.958Z,15.90
2023-08-27T18:02:45.973Z,14.50
2023-08-27T18:06:49.982Z,15.30
2023-08-27T18:10:54.001Z,14.40
2023-08-27T18:14:59.003Z,13.30
2023-08-27T18:19:03.028Z,14.30
2023-08-27T18:23:07.226Z,15.40
2023-08-27T18:27:11.248Z,15.40
2023-08-27T18:31:14.312Z,13.90
2023-08-27T18:35:18.398Z,15.50
2023-08-27T18:39:12.210Z,14.30
2023-08-27T18:43:16.215Z,15.70
2023-08-27T18:47:10.170Z,12.90
2023-08-27T18:51:06.887Z,14.20
2023-08-27T18:55:10.918Z,14.80
2023-08-27T18:58:57.539Z,12.70
2023-08-27T19:02:41.798Z,12.30
2023-08-27T19:06:48.841Z,11.10
2023-08-27T19:10:52.807Z,11.80
2023-08-27T19:14:47.775Z,13.00
2023-08-27T19:18:51.714Z,16.50
2023-08-27T19:22:56.343Z,15.60
2023-08-27T19:27:00.354Z,15.00
2023-08-27T19:31:04.460Z,13.80
2023-08-27T19:34:50.712Z,14.20
2023-08-27T19:38:54.697Z,13.90
2023-08-27T19:42:58.626Z,14.50
2023-08-27T19:47:02.521Z,16.30
2023-08-27T19:51:06.611Z,16.30
2023-08-27T19:54:50.704Z,16.00
2023-08-27T19:58:54.687Z,14.80
2023-08-27T20:02:56.717Z,15.20
2023-08-27T20:06:19.771Z,14.70
2023-08-27T20:10:14.770Z,14.30
2023-08-27T20:14:18.684Z,14.30
2023-08-27T20:18:23.745Z,15.10
2023-08-27T20:22:26.731Z,15.50
2023-08-27T20:26:30.663Z,12.60
2023-08-27T20:30:34.717Z,12.90
2023-08-27T20:34:38.007Z,9.40
2023-08-27T20:38:45.201Z,11.20
2023-08-27T20:42:49.063Z,14.60
2023-08-27T20:46:52.762Z,14.40
2023-08-27T20:50:50.101Z,13.40
2023-08-27T20:54:54.039Z,14.10
2023-08-27T20:58:57.764Z,12.70
2023-08-27T21:03:00.769Z,15.00
2023-08-27T21:07:04.169Z,15.50
2023-08-27T21:11:08.225Z,14.80
2023-08-27T21:15:10.945Z,12.00
2023-08-27T21:19:13.459Z,13.00
2023-08-27T21:23:18.138Z,13.40
2023-08-27T21:27:14.823Z,14.00
2023-08-27T21:31:35.723Z,18.80
2023-08-27T21:35:24.271Z,15.70
2023-08-27T21:39:28.267Z,16.40
2023-08-27T21:43:29.509Z,13.70
2023-08-27T21:47:26.109Z,13.80
2023-08-27T21:51:22.955Z,15.30
2023-08-27T21:55:11.401Z,16.20
2023-08-27T21:59:15.973Z,15.30
2023-08-27T22:02:58.360Z,22.00
2023-08-27T22:07:08.802Z,19.70
2023-08-27T22:11:01.640Z,25.00
2023-08-27T22:14:48.992Z,23.50
2023-08-27T22:18:16.105Z,23.70
2023-08-27T22:22:14.739Z,23.90
2023-08-27T22:25:57.837Z,25.00
2023-08-27T22:29:46.147Z,29.30
2023-08-27T22:33:38.357Z,29.70
2023-08-27T22:37:32.579Z,28.10
2023-08-27T22:41:29.185Z,31.40
2023-08-27T22:45:23.322Z,34.80
2023-08-27T22:49:26.254Z,30.50
2023-08-27T22:53:30.030Z,27.70
2023-08-27T22:57:11.545Z,27.40
2023-08-27T23:01:17.773Z,23.80
2023-08-27T23:05:21.682Z,27.40
2023-08-27T23:09:27.683Z,25.50
2023-08-27T23:13:31.575Z,26.90
2023-08-27T23:17:37.701Z,24.50
2023-08-27T23:21:42.418Z,22.70
2023-08-27T23:25:40.045Z,24.50
2023-08-27T23:29:43.972Z,24.80
2023-08-27T23:33:47.775Z,21.40
2023-08-27T23:37:50.784Z,24.30
2023-08-27T23:41:54.679Z,23.30
2023-08-27T23:45:59.662Z,19.70
2023-08-27T23:50:00.476Z,20.20
2023-08-27T23:53:56.679Z,22.30
2023-08-27T23:57:51.570Z,23.20
